LNG Imo — ZCDT6 — position and weather

sailwx.info

Track history (hours):
 
Tides and Currents Weather Stations Pressure Air Temp Water Temp Dewpoint Dewpoint Depression Visibility Wind Speed Wind Dir Waves Ship Positions

LNG Imo

Last reported at 2017-Sep-08 23:55 UTC. Time now 2017-Sep-26 04:08 UTC.
Position S 33°03' E 031°00'.
Warning: this ship's position is 17 days out of date.

Length 288 m; draft 11.5 m.

Type: Ship (hazmat cat D). MMSI: 310565000.

Date/timePositionNaut miles runAvg speedWind from/ knotsBaromVisibWave heightAir tempDewpointWater temp
2017-Sep-08 23:55S 33°03' E 031°00'512.9
2017-Sep-08 23:30S 33°05' E 030°54'713.1
2017-Sep-08 23:00S 33°08' E 030°47'612.9
2017-Sep-08 22:30S 33°11' E 030°40'713.2
2017-Sep-08 22:00S 33°13' E 030°33'713.4
2017-Sep-08 21:28S 33°17' E 030°25'613.1
2017-Sep-08 21:00S 33°19' E 030°19'613.1
2017-Sep-08 20:30S 33°22' E 030°12'813.1
2017-Sep-08 19:53S 33°25' E 030°03'712.7
2017-Sep-08 19:19S 33°28' E 029°55'  
2017-Sep-06 15:01S 33°55' E 018°15'011.4
2017-Sep-06 14:59S 33°55' E 018°16'2 3.7
2017-Sep-06 14:27S 33°53' E 018°16'1 1.8
2017-Sep-06 14:00S 33°52' E 018°15'2 4.4
2017-Sep-06 13:30S 33°51' E 018°13'510.8
2017-Sep-06 13:00S 33°47' E 018°08'  
Track history (hours):
 
Tides and Currents Weather Stations Pressure Air Temp Water Temp Dewpoint Dewpoint Depression Visibility Wind Speed Wind Dir Waves Ship Positions

LNG Imo

Last reported at 2017-Sep-08 23:55 UTC. Time now 2017-Sep-26 04:08 UTC.
Position S 33°03' E 031°00'.
Warning: this ship's position is 17 days out of date.

Length 288 m; draft 11.5 m.

Type: Ship (hazmat cat D). MMSI: 310565000.

Date/timePositionNaut miles runAvg speedWind from/ knotsBaromVisibWave heightAir tempDewpointWater temp
2017-Sep-08 23:55S 33°03' E 031°00'512.9
2017-Sep-08 23:30S 33°05' E 030°54'713.1
2017-Sep-08 23:00S 33°08' E 030°47'612.9
2017-Sep-08 22:30S 33°11' E 030°40'713.2
2017-Sep-08 22:00S 33°13' E 030°33'713.4
2017-Sep-08 21:28S 33°17' E 030°25'613.1
2017-Sep-08 21:00S 33°19' E 030°19'613.1
2017-Sep-08 20:30S 33°22' E 030°12'813.1
2017-Sep-08 19:53S 33°25' E 030°03'712.7
2017-Sep-08 19:19S 33°28' E 029°55'  
2017-Sep-06 15:01S 33°55' E 018°15'011.4
2017-Sep-06 14:59S 33°55' E 018°16'2 3.7
2017-Sep-06 14:27S 33°53' E 018°16'1 1.8
2017-Sep-06 14:00S 33°52' E 018°15'2 4.4
2017-Sep-06 13:30S 33°51' E 018°13'510.8
2017-Sep-06 13:00S 33°47' E 018°08'  

Dump ship's entire track history